createdAt,value
2017-06-28T00:00:34.709Z,66.02
2017-06-28T00:03:03.495Z,66.14
2017-06-28T00:05:32.485Z,66.14
2017-06-28T00:08:01.273Z,65.92
2017-06-28T00:10:30.053Z,66.08
2017-06-28T00:12:58.463Z,65.92
2017-06-28T00:15:26.843Z,65.52
2017-06-28T00:17:56.099Z,65.61
2017-06-28T00:20:24.489Z,65.55
2017-06-28T00:22:52.893Z,65.41
2017-06-28T00:25:21.777Z,65.42
2017-06-28T00:27:51.079Z,65.18
2017-06-28T00:30:20.672Z,65.21
2017-06-28T00:32:49.054Z,65.09
2017-06-28T00:35:17.522Z,65.29
2017-06-28T00:37:45.887Z,65.20
2017-06-28T00:40:14.287Z,65.20
2017-06-28T00:42:42.778Z,64.89
2017-06-28T00:45:11.364Z,65.22
2017-06-28T00:47:39.739Z,65.29
2017-06-28T00:50:08.444Z,65.25
2017-06-28T00:52:37.321Z,65.21
2017-06-28T00:55:06.021Z,65.21
2017-06-28T00:57:34.816Z,64.97
2017-06-28T01:00:03.220Z,64.71
2017-06-28T01:02:31.755Z,64.77
2017-06-28T01:05:00.141Z,64.60
2017-06-28T01:07:28.521Z,65.02
2017-06-28T01:09:56.904Z,64.92
2017-06-28T01:12:25.670Z,65.22
2017-06-28T01:14:54.265Z,65.39
2017-06-28T01:17:22.704Z,65.49
2017-06-28T01:19:51.085Z,65.67
2017-06-28T01:22:19.481Z,65.65
2017-06-28T01:24:47.869Z,65.86
2017-06-28T01:27:16.256Z,65.80
2017-06-28T01:29:44.629Z,65.89
2017-06-28T01:32:13.135Z,65.94
2017-06-28T01:34:41.529Z,66.05
2017-06-28T01:37:10.561Z,66.01
2017-06-28T01:39:38.947Z,66.10
2017-06-28T01:42:07.326Z,66.29
2017-06-28T01:44:35.853Z,66.46
2017-06-28T01:47:04.224Z,66.36
2017-06-28T01:49:32.613Z,66.46
2017-06-28T01:52:00.993Z,66.52
2017-06-28T01:54:29.359Z,66.70
2017-06-28T01:56:57.842Z,66.58
2017-06-28T01:59:26.451Z,66.69
2017-06-28T02:01:55.419Z,66.73
2017-06-28T02:04:23.818Z,66.67
2017-06-28T02:06:52.592Z,66.82
2017-06-28T02:09:21.030Z,66.89
2017-06-28T02:11:49.399Z,66.84
2017-06-28T02:14:17.785Z,66.99
2017-06-28T02:16:46.543Z,67.13
2017-06-28T02:19:15.339Z,67.03
2017-06-28T02:21:44.108Z,67.17
2017-06-28T02:24:12.577Z,67.13
2017-06-28T02:26:41.120Z,67.39
2017-06-28T02:29:09.503Z,67.17
2017-06-28T02:31:37.895Z,67.11
2017-06-28T02:34:06.271Z,67.16
2017-06-28T02:36:34.661Z,67.29
2017-06-28T02:39:03.042Z,67.27
2017-06-28T02:41:31.425Z,67.27
2017-06-28T02:43:59.820Z,67.12
2017-06-28T02:46:28.532Z,67.19
2017-06-28T02:48:57.510Z,67.03
2017-06-28T02:51:25.888Z,67.17
2017-06-28T02:53:54.260Z,67.05
2017-06-28T02:56:22.647Z,66.81
2017-06-28T02:58:51.029Z,66.77
2017-06-28T03:01:19.732Z,66.62
2017-06-28T03:03:48.524Z,66.50
2017-06-28T03:06:17.449Z,66.42
2017-06-28T03:08:45.876Z,66.39
2017-06-28T03:11:14.465Z,66.45
2017-06-28T03:13:42.836Z,66.21
2017-06-28T03:16:11.213Z,66.10
2017-06-28T03:18:40.026Z,65.92
2017-06-28T03:21:08.854Z,65.78
2017-06-28T03:23:37.245Z,65.50
2017-06-28T03:26:05.885Z,65.23
2017-06-28T03:28:35.078Z,65.03
2017-06-28T03:31:03.960Z,64.99
2017-06-28T03:33:33.060Z,64.77
2017-06-28T03:36:01.944Z,64.69
2017-06-28T03:38:30.322Z,64.99
2017-06-28T03:40:58.729Z,65.21
2017-06-28T03:43:27.601Z,65.44
2017-06-28T03:45:56.484Z,65.37
2017-06-28T03:48:24.859Z,65.40
2017-06-28T03:50:53.227Z,65.41
2017-06-28T03:53:21.645Z,65.33
2017-06-28T03:55:50.411Z,65.49
2017-06-28T03:58:18.809Z,65.35
2017-06-28T04:00:47.576Z,65.48
2017-06-28T04:03:16.181Z,65.44
2017-06-28T04:05:44.947Z,65.37
2017-06-28T04:08:13.661Z,65.24
2017-06-28T04:10:42.448Z,65.47
2017-06-28T04:13:11.224Z,65.57
2017-06-28T04:15:39.613Z,65.85
2017-06-28T04:18:08.402Z,66.14
2017-06-28T04:20:37.196Z,66.33
2017-06-28T04:23:05.963Z,66.49
2017-06-28T04:25:34.453Z,66.47
2017-06-28T04:28:03.159Z,66.62
2017-06-28T04:30:31.932Z,66.63
2017-06-28T04:33:00.327Z,66.31
2017-06-28T04:35:29.105Z,66.28
2017-06-28T04:37:57.939Z,66.40
2017-06-28T04:40:26.311Z,66.51
2017-06-28T04:42:55.047Z,66.47
2017-06-28T04:45:23.429Z,66.44
2017-06-28T04:47:51.799Z,65.68
2017-06-28T04:50:20.249Z,65.59
2017-06-28T04:52:48.624Z,65.57
2017-06-28T04:55:17.213Z,64.60
2017-06-28T04:57:45.596Z,62.57
2017-06-28T05:00:14.078Z,59.15
2017-06-28T05:02:42.464Z,55.01
2017-06-28T05:05:10.849Z,50.47
2017-06-28T05:07:39.227Z,47.42
2017-06-28T05:10:07.607Z,43.71
2017-06-28T05:12:36.127Z,41.15
2017-06-28T05:15:04.837Z,42.04
2017-06-28T05:17:33.618Z,42.01
2017-06-28T05:20:02.491Z,41.76
2017-06-28T05:22:31.201Z,43.57
2017-06-28T05:24:59.994Z,45.20
2017-06-28T05:27:28.359Z,45.83
2017-06-28T05:29:57.562Z,43.49
2017-06-28T05:32:26.344Z,42.62
2017-06-28T05:34:54.733Z,40.84
2017-06-28T05:37:23.523Z,39.55
2017-06-28T05:39:52.325Z,37.25
2017-06-28T05:42:20.783Z,37.89
2017-06-28T05:44:49.151Z,37.57
2017-06-28T05:47:17.545Z,36.66
2017-06-28T05:49:46.324Z,35.23
2017-06-28T05:52:14.727Z,35.05
2017-06-28T05:54:43.509Z,34.13
2017-06-28T05:57:12.389Z,33.60
2017-06-28T05:59:40.754Z,31.51
2017-06-28T06:02:09.139Z,31.26
2017-06-28T06:04:37.551Z,30.87
2017-06-28T06:07:07.238Z,29.33
2017-06-28T06:09:35.631Z,29.49
2017-06-28T06:12:04.405Z,27.92
2017-06-28T06:14:32.809Z,28.58
2017-06-28T06:17:01.175Z,28.31
2017-06-28T06:19:30.282Z,29.70
2017-06-28T06:21:59.044Z,30.69
2017-06-28T06:24:27.441Z,31.52
2017-06-28T06:26:56.215Z,30.32
2017-06-28T06:29:24.810Z,30.02
2017-06-28T06:31:53.704Z,28.53
2017-06-28T06:34:22.071Z,29.00
2017-06-28T06:36:50.780Z,29.33
2017-06-28T06:39:19.881Z,27.95
2017-06-28T06:41:48.263Z,27.86
2017-06-28T06:44:16.649Z,27.52
2017-06-28T06:46:45.195Z,27.04
2017-06-28T06:49:13.909Z,26.69
2017-06-28T06:51:42.366Z,27.65
2017-06-28T06:54:10.749Z,27.86
2017-06-28T06:56:39.227Z,29.16
2017-06-28T06:59:07.607Z,27.96
2017-06-28T07:01:36.324Z,27.56
2017-06-28T07:04:04.707Z,28.45
2017-06-28T07:06:33.467Z,28.41
2017-06-28T07:09:01.865Z,27.14
2017-06-28T07:11:30.239Z,27.55
2017-06-28T07:13:58.737Z,25.95
2017-06-28T07:16:27.125Z,25.57
2017-06-28T07:18:55.506Z,24.91
2017-06-28T07:21:23.887Z,25.41
2017-06-28T07:23:52.257Z,26.17
2017-06-28T07:26:20.661Z,26.34
2017-06-28T07:28:49.049Z,26.99
2017-06-28T07:31:17.463Z,25.62
2017-06-28T07:33:46.174Z,24.15
2017-06-28T07:36:14.963Z,23.80
2017-06-28T07:38:43.727Z,23.32
2017-06-28T07:41:12.165Z,22.47
2017-06-28T07:43:40.544Z,21.52
2017-06-28T07:46:08.943Z,20.23
2017-06-28T07:48:37.579Z,20.72
2017-06-28T07:51:05.956Z,24.17
2017-06-28T07:53:34.736Z,27.76
2017-06-28T07:56:03.281Z,30.17
2017-06-28T07:58:31.788Z,29.10
2017-06-28T08:01:00.168Z,28.40
2017-06-28T08:03:28.536Z,27.22
2017-06-28T08:08:31.625Z,27.98
2017-06-28T08:11:00.369Z,26.29
2017-06-28T08:13:29.135Z,25.46
2017-06-28T08:15:57.533Z,25.00
2017-06-28T08:18:26.309Z,26.42
2017-06-28T08:20:54.694Z,27.21
2017-06-28T08:23:23.393Z,27.04
2017-06-28T08:25:52.184Z,27.19
2017-06-28T08:28:20.587Z,26.42
2017-06-28T08:30:48.975Z,25.82
2017-06-28T08:33:17.355Z,25.57
2017-06-28T08:35:45.889Z,26.58
2017-06-28T08:38:14.264Z,26.80
2017-06-28T08:40:42.653Z,28.29
2017-06-28T08:43:11.043Z,28.28
2017-06-28T08:45:39.825Z,26.63
2017-06-28T08:48:08.216Z,26.28
2017-06-28T08:50:36.989Z,24.85
2017-06-28T08:53:05.386Z,24.67
2017-06-28T08:55:33.788Z,24.08
2017-06-28T08:58:02.181Z,24.21
2017-06-28T09:00:30.553Z,24.29
2017-06-28T09:02:58.953Z,26.74
2017-06-28T09:05:27.341Z,26.88
2017-06-28T09:07:55.712Z,25.31
2017-06-28T09:10:24.100Z,25.52
2017-06-28T09:12:52.476Z,26.36
2017-06-28T09:15:21.233Z,27.17
2017-06-28T09:17:49.617Z,26.21
2017-06-28T09:20:18.008Z,24.95
2017-06-28T09:22:46.394Z,25.16
2017-06-28T09:25:14.788Z,25.73
2017-06-28T09:27:43.169Z,26.42
2017-06-28T09:30:11.661Z,25.64
2017-06-28T09:32:40.046Z,24.99
2017-06-28T09:35:08.480Z,23.72
2017-06-28T09:37:36.871Z,23.49
2017-06-28T09:40:05.239Z,23.69
2017-06-28T09:42:33.627Z,25.24
2017-06-28T09:45:02.013Z,25.07
2017-06-28T09:47:30.443Z,24.23
2017-06-28T09:50:00.168Z,25.01
2017-06-28T09:52:28.559Z,24.46
2017-06-28T09:54:56.943Z,24.32
2017-06-28T09:57:25.346Z,24.22
2017-06-28T09:59:53.724Z,27.15
2017-06-28T10:02:22.235Z,25.56
2017-06-28T10:04:50.616Z,26.76
2017-06-28T10:07:18.997Z,28.65
2017-06-28T10:09:47.389Z,29.50
2017-06-28T10:12:15.785Z,27.93
2017-06-28T10:14:44.198Z,28.14
2017-06-28T10:17:12.591Z,30.09
2017-06-28T10:19:41.761Z,31.29
2017-06-28T10:22:10.140Z,29.59
2017-06-28T10:24:38.528Z,28.41
2017-06-28T10:27:06.909Z,28.53
2017-06-28T10:29:35.560Z,29.97
2017-06-28T10:32:03.932Z,30.29
2017-06-28T10:34:32.509Z,27.95
2017-06-28T10:37:01.279Z,27.38
2017-06-28T10:39:29.661Z,28.88
2017-06-28T10:41:58.056Z,30.61
2017-06-28T10:44:26.827Z,30.60
2017-06-28T10:46:55.543Z,30.06
2017-06-28T10:49:24.231Z,31.48
2017-06-28T10:51:52.648Z,32.38
2017-06-28T10:54:21.296Z,33.67
2017-06-28T10:56:49.869Z,34.76
2017-06-28T10:59:18.641Z,35.93
2017-06-28T11:01:47.015Z,37.33
2017-06-28T11:04:15.735Z,38.00
2017-06-28T11:06:44.841Z,35.50
2017-06-28T11:09:13.247Z,32.32
2017-06-28T11:11:41.619Z,33.13
2017-06-28T11:14:10.007Z,35.56
2017-06-28T11:16:38.401Z,38.34
2017-06-28T11:19:06.914Z,39.75
2017-06-28T11:21:35.404Z,37.67
2017-06-28T11:24:03.789Z,38.13
2017-06-28T11:26:32.589Z,37.90
2017-06-28T11:29:01.359Z,38.12
2017-06-28T11:31:29.744Z,38.46
2017-06-28T11:33:58.117Z,39.26
2017-06-28T11:36:26.513Z,41.66
2017-06-28T11:38:55.294Z,42.14
2017-06-28T11:41:24.082Z,43.08
2017-06-28T11:43:53.181Z,44.13
2017-06-28T11:46:21.960Z,44.26
2017-06-28T11:48:50.340Z,44.68
2017-06-28T11:51:18.728Z,45.05
2017-06-28T11:53:47.508Z,45.20
2017-06-28T11:56:15.886Z,45.45
2017-06-28T11:58:44.396Z,44.43
2017-06-28T12:01:13.071Z,44.32
2017-06-28T12:03:42.169Z,43.52
2017-06-28T12:06:10.955Z,43.17
2017-06-28T12:08:39.724Z,43.13
2017-06-28T12:11:08.130Z,42.92
2017-06-28T12:13:36.513Z,42.83
2017-06-28T12:16:05.307Z,42.86
2017-06-28T12:18:33.685Z,42.72
2017-06-28T12:21:02.249Z,42.64
2017-06-28T12:23:31.015Z,42.36
2017-06-28T12:25:59.388Z,43.16
2017-06-28T12:28:27.772Z,44.37
2017-06-28T12:30:56.143Z,44.00
2017-06-28T12:33:24.543Z,43.95
2017-06-28T12:35:52.929Z,43.61
2017-06-28T12:38:21.335Z,43.59
2017-06-28T12:40:49.707Z,43.35
2017-06-28T12:43:18.680Z,43.63
2017-06-28T12:45:47.061Z,44.78
2017-06-28T12:48:15.435Z,45.11
2017-06-28T12:50:43.919Z,45.18
2017-06-28T12:53:12.295Z,45.39
2017-06-28T12:55:40.794Z,45.64
2017-06-28T12:58:09.561Z,45.55
2017-06-28T13:00:38.256Z,45.00
2017-06-28T13:03:06.688Z,45.14
2017-06-28T13:05:35.069Z,45.44
2017-06-28T13:08:03.473Z,46.18
2017-06-28T13:10:31.848Z,45.61
2017-06-28T13:13:00.253Z,44.67
2017-06-28T13:15:28.637Z,43.81
2017-06-28T13:17:57.028Z,43.83
2017-06-28T13:20:25.814Z,42.71
2017-06-28T13:22:54.272Z,42.33
2017-06-28T13:25:22.661Z,43.42
2017-06-28T13:27:51.366Z,44.45
2017-06-28T13:30:20.828Z,44.26
2017-06-28T13:32:49.201Z,43.50
2017-06-28T13:35:17.596Z,43.20
2017-06-28T13:37:45.972Z,43.90
2017-06-28T13:40:14.365Z,44.21
2017-06-28T13:42:42.745Z,44.98
2017-06-28T13:45:11.141Z,45.70
2017-06-28T13:47:39.545Z,46.58
2017-06-28T13:50:08.508Z,47.34
2017-06-28T13:52:36.875Z,48.29
2017-06-28T13:55:05.261Z,49.19
2017-06-28T13:57:33.651Z,49.77
2017-06-28T14:00:02.031Z,50.03
2017-06-28T14:02:30.432Z,53.73
2017-06-28T14:04:59.216Z,68.24
2017-06-28T14:07:27.999Z,66.14
2017-06-28T14:09:56.772Z,64.42
2017-06-28T14:12:25.568Z,68.16
2017-06-28T14:14:54.408Z,85.39
2017-06-28T14:17:22.800Z,92.43
2017-06-28T14:19:51.199Z,95.03
2017-06-28T14:22:19.604Z,100.00
2017-06-28T14:24:48.029Z,100.00
2017-06-28T14:27:16.689Z,100.00
2017-06-28T14:29:45.207Z,100.00
2017-06-28T14:32:13.600Z,100.00
2017-06-28T14:34:41.998Z,97.10
2017-06-28T14:37:10.387Z,97.69
2017-06-28T14:39:38.759Z,98.04
2017-06-28T14:42:07.166Z,98.25
2017-06-28T14:44:35.552Z,98.42
2017-06-28T14:47:03.948Z,98.61
2017-06-28T14:49:33.240Z,98.79
2017-06-28T14:52:01.977Z,98.69
2017-06-28T14:54:30.355Z,98.76
2017-06-28T14:56:58.741Z,98.97
2017-06-28T14:59:27.142Z,99.15
2017-06-28T15:01:55.520Z,99.31
2017-06-28T15:04:23.912Z,99.37
2017-06-28T15:06:52.286Z,99.43
2017-06-28T15:09:20.689Z,99.54
2017-06-28T15:11:49.295Z,99.59
2017-06-28T15:14:17.798Z,99.44
2017-06-28T15:16:46.176Z,99.41
2017-06-28T15:19:14.561Z,99.40
2017-06-28T15:21:42.956Z,99.44
2017-06-28T15:24:11.346Z,99.34
2017-06-28T15:26:40.139Z,99.34
2017-06-28T15:29:08.913Z,99.12
2017-06-28T15:31:37.335Z,98.67
2017-06-28T15:34:05.726Z,98.59
2017-06-28T15:36:34.133Z,98.78
2017-06-28T15:39:02.514Z,98.59
2017-06-28T15:41:30.927Z,97.88
2017-06-28T15:43:59.716Z,97.25
2017-06-28T15:46:28.695Z,98.18
2017-06-28T15:48:57.082Z,98.17
2017-06-28T15:51:25.472Z,97.50
2017-06-28T15:54:22.745Z,96.84
2017-06-28T15:56:51.162Z,96.12
2017-06-28T15:59:19.549Z,96.22
2017-06-28T16:01:48.037Z,91.98
2017-06-28T16:04:16.424Z,93.43
2017-06-28T16:06:44.806Z,93.35
2017-06-28T16:09:13.191Z,93.41
2017-06-28T16:11:41.567Z,93.62
2017-06-28T16:14:10.077Z,92.52
2017-06-28T16:16:38.457Z,91.55
2017-06-28T16:19:06.840Z,91.52
2017-06-28T16:21:35.245Z,90.57
2017-06-28T16:24:03.852Z,91.13
2017-06-28T16:26:32.254Z,87.96
2017-06-28T16:29:00.639Z,89.17
2017-06-28T16:31:29.305Z,87.41
2017-06-28T16:33:57.683Z,87.97
2017-06-28T16:36:26.059Z,87.87
2017-06-28T16:38:54.461Z,87.41
2017-06-28T16:41:22.849Z,85.60
2017-06-28T16:43:51.247Z,84.34
2017-06-28T16:46:19.629Z,83.70
2017-06-28T16:48:48.008Z,83.54
2017-06-28T16:51:16.678Z,82.43
2017-06-28T16:53:45.064Z,83.06
2017-06-28T16:56:13.456Z,82.37
2017-06-28T16:58:41.835Z,82.13
2017-06-28T17:01:10.227Z,82.00
2017-06-28T17:03:38.603Z,81.56
2017-06-28T17:06:07.105Z,80.69
2017-06-28T17:08:35.487Z,79.16
2017-06-28T17:11:03.907Z,79.27
2017-06-28T17:13:32.295Z,79.94
2017-06-28T17:16:00.680Z,79.74
2017-06-28T17:18:29.064Z,78.60
2017-06-28T17:20:57.445Z,78.20
2017-06-28T17:23:25.844Z,78.58
2017-06-28T17:25:54.217Z,77.24
2017-06-28T17:28:22.709Z,77.41
2017-06-28T17:30:51.093Z,77.01
2017-06-28T17:33:19.482Z,76.63
2017-06-28T17:35:47.870Z,75.09
2017-06-28T17:38:16.256Z,76.07
2017-06-28T17:40:44.662Z,75.86
2017-06-28T17:43:13.031Z,76.17
2017-06-28T17:45:41.425Z,76.44
2017-06-28T17:48:09.810Z,76.38
2017-06-28T17:50:38.297Z,77.13
2017-06-28T17:53:06.909Z,77.23
2017-06-28T17:55:35.279Z,77.29
2017-06-28T17:58:03.670Z,77.58
2017-06-28T18:00:32.060Z,77.45
2017-06-28T18:03:00.457Z,78.49
2017-06-28T18:05:28.832Z,78.46
2017-06-28T18:07:57.324Z,78.33
2017-06-28T18:10:25.725Z,78.48
2017-06-28T18:12:54.097Z,78.48
2017-06-28T18:15:22.488Z,78.34
2017-06-28T18:17:50.865Z,78.31
2017-06-28T18:20:19.251Z,78.31
2017-06-28T18:22:47.967Z,77.70
2017-06-28T18:25:16.764Z,77.40
2017-06-28T18:27:45.158Z,77.76
2017-06-28T18:30:15.157Z,78.16
2017-06-28T18:32:43.978Z,77.87
2017-06-28T18:35:12.376Z,77.65
2017-06-28T18:37:40.900Z,77.61
2017-06-28T18:40:09.985Z,78.28
2017-06-28T18:42:38.700Z,78.45
2017-06-28T18:45:07.093Z,78.74
2017-06-28T18:47:35.497Z,78.97
2017-06-28T18:50:03.889Z,79.68
2017-06-28T18:52:32.290Z,80.12
2017-06-28T18:55:00.788Z,79.90
2017-06-28T18:57:29.583Z,80.64
2017-06-28T18:59:58.368Z,80.95
2017-06-28T19:02:27.159Z,81.17
2017-06-28T19:04:55.935Z,81.97
2017-06-28T19:07:24.345Z,81.85
2017-06-28T19:09:52.728Z,82.08
2017-06-28T19:12:21.284Z,82.23
2017-06-28T19:14:49.659Z,81.92
2017-06-28T19:17:18.050Z,81.96
2017-06-28T19:19:46.840Z,82.49
2017-06-28T19:22:15.616Z,83.02
2017-06-28T19:24:44.648Z,83.53
2017-06-28T19:27:13.028Z,83.75
2017-06-28T19:29:41.431Z,84.03
2017-06-28T19:32:09.822Z,84.33
2017-06-28T19:34:38.220Z,84.63
2017-06-28T19:37:06.605Z,85.00
2017-06-28T19:39:35.413Z,85.34
2017-06-28T19:42:03.802Z,85.36
2017-06-28T19:44:32.586Z,85.63
2017-06-28T19:47:01.377Z,85.84
2017-06-28T19:49:30.182Z,86.13
2017-06-28T19:51:58.608Z,86.39
2017-06-28T19:54:26.993Z,86.76
2017-06-28T19:56:55.508Z,86.92
2017-06-28T19:59:24.284Z,87.26
2017-06-28T20:01:52.663Z,87.34
2017-06-28T20:04:21.052Z,87.53
2017-06-28T20:06:49.431Z,88.05
2017-06-28T20:09:17.833Z,88.41
2017-06-28T20:11:46.229Z,88.45
2017-06-28T20:14:14.624Z,88.30
2017-06-28T20:16:43.018Z,88.59
2017-06-28T20:19:11.423Z,88.42
2017-06-28T20:21:39.816Z,88.81
2017-06-28T20:24:09.013Z,89.12
2017-06-28T20:26:37.795Z,89.33
2017-06-28T20:29:06.277Z,89.51
2017-06-28T20:31:34.682Z,89.25
2017-06-28T20:34:03.066Z,89.89
2017-06-28T20:36:31.459Z,90.10
2017-06-28T20:38:59.840Z,90.00
2017-06-28T20:41:28.239Z,89.78
2017-06-28T20:43:56.624Z,89.76
2017-06-28T20:46:25.031Z,89.67
2017-06-28T20:48:53.425Z,89.65
2017-06-28T20:51:22.509Z,89.46
2017-06-28T20:53:50.897Z,89.77
2017-06-28T20:56:19.284Z,89.58
2017-06-28T20:58:48.917Z,89.48
2017-06-28T21:01:17.310Z,89.59
2017-06-28T21:03:45.714Z,89.47
2017-06-28T21:06:14.175Z,89.68
2017-06-28T21:08:42.582Z,89.94
2017-06-28T21:11:11.721Z,90.58
2017-06-28T21:13:40.697Z,90.48
2017-06-28T21:16:09.085Z,90.24
2017-06-28T21:18:37.877Z,90.23
2017-06-28T21:21:06.899Z,90.52
2017-06-28T21:23:35.280Z,90.63
2017-06-28T21:26:03.693Z,91.00
2017-06-28T21:28:32.089Z,91.32
2017-06-28T21:31:00.504Z,91.52
2017-06-28T21:33:29.290Z,91.69
2017-06-28T21:35:58.590Z,91.75
2017-06-28T21:38:26.970Z,91.82
2017-06-28T21:40:55.744Z,91.86
2017-06-28T21:58:13.292Z,91.78
2017-06-28T22:00:42.072Z,91.75
2017-06-28T22:03:11.057Z,91.69
2017-06-28T22:05:39.432Z,91.61
2017-06-28T22:08:07.817Z,91.62
2017-06-28T22:10:36.241Z,91.70
2017-06-28T22:13:04.631Z,91.94
2017-06-28T22:15:33.023Z,92.03
2017-06-28T22:18:01.399Z,92.11
2017-06-28T22:20:38.644Z,92.33
2017-06-28T22:23:07.424Z,92.76
2017-06-28T22:25:36.307Z,92.80
2017-06-28T22:28:05.076Z,92.59
2017-06-28T22:30:33.480Z,92.56
2017-06-28T22:33:02.630Z,93.42
2017-06-28T22:35:31.032Z,93.58
2017-06-28T22:37:59.435Z,93.31
2017-06-28T22:40:28.232Z,93.30
2017-06-28T22:42:57.024Z,93.43
2017-06-28T22:45:25.816Z,93.37
2017-06-28T22:47:54.912Z,93.25
2017-06-28T22:50:23.285Z,93.16
2017-06-28T22:52:52.110Z,93.50
2017-06-28T22:55:20.491Z,93.20
2017-06-28T22:57:48.911Z,93.09
2017-06-28T23:00:17.297Z,93.18
2017-06-28T23:02:46.093Z,93.25
2017-06-28T23:05:14.468Z,93.28
2017-06-28T23:07:42.847Z,93.44
2017-06-28T23:10:11.249Z,93.59
2017-06-28T23:12:40.015Z,93.68
2017-06-28T23:15:08.411Z,93.71
2017-06-28T23:17:37.175Z,93.85
2017-06-28T23:20:05.577Z,93.88
2017-06-28T23:22:34.361Z,93.84
2017-06-28T23:25:02.997Z,93.95
2017-06-28T23:27:31.382Z,94.06
2017-06-28T23:29:59.770Z,94.21
2017-06-28T23:32:28.158Z,94.53
2017-06-28T23:34:56.551Z,94.68
2017-06-28T23:37:24.952Z,94.90
2017-06-28T23:39:53.736Z,95.13
2017-06-28T23:42:22.539Z,95.37
2017-06-28T23:44:50.946Z,95.54
2017-06-28T23:47:19.466Z,95.66
2017-06-28T23:49:47.856Z,95.91
2017-06-28T23:52:16.244Z,96.01
2017-06-28T23:54:44.639Z,96.06
2017-06-28T23:57:13.425Z,96.10
2017-06-28T23:59:42.524Z,96.16
